Dzerzhinsk, Russia
Current Conditions -  °F | °C
As of 12:00 AM on Saturday 01 Nov 2014 (Local Time) from UWGG Reporting Station
Haze Haze  
Wind Chill: 32°   Ceiling: 10000
Heat Index: 32°   Visibility: 3mi
Dew Point: 28°   Wind: 2mph
Humidity: 87%   Direction: 290°WNW
Pressure: 30.03"   Gusts: NA
Location:  56.24°N, 43.46°E
Report Text: UWGG 312100Z 29001MPS 5000 BR SCT033 BKN100 M00/M02 Q1017 NOSIG36090060 RMK QFE755
Loading
Personal Weather Stations






























Interactive Weather Map
Tropical Storm Tracking
New forecast layout! Learn more

10-Day Weather Forecast

Advertisements
Track Severe Weather on mobile